Palmers Crossing, Mississippi
Current Conditions -  °F | °C
As of 11:53 PM on Sunday 21 Dec 2014 (Local Time) from KHBG Reporting Station
Haze Haze  
Wind Chill: 52°   Ceiling: 200
Heat Index: 52°   Visibility: 1.2mi
Dew Point: 52°   Wind: 3mph
Humidity: 100%   Direction: 100°E
Pressure: 29.97"   Gusts: NA
Location:  31.1996°N, 89.2694°W
Report Text: KHBG 220553Z AUTO 10003KT 1 1/4SM BR OVC002 11/11 A2997 RMK AO2 SLP149 T01110111 10122 20111 401330061 58010
Loading
Personal Weather Stations






























Interactive Weather Map New forecast layout! Learn more

10-Day Weather Forecast

Advertisements
Track Severe Weather on mobile